createdAt,value
2018-04-13T00:02:11.244Z,99890.86
2018-04-13T00:04:38.747Z,99893.50
2018-04-13T00:07:06.234Z,99889.39
2018-04-13T00:09:33.695Z,99896.64
2018-04-13T00:12:01.161Z,99889.92
2018-04-13T00:14:28.623Z,99888.83
2018-04-13T00:16:56.157Z,99888.12
2018-04-13T00:19:23.640Z,99892.34
2018-04-13T00:21:51.215Z,99889.39
2018-04-13T00:24:18.667Z,99890.77
2018-04-13T00:26:46.111Z,99885.13
2018-04-13T00:29:13.608Z,99887.47
2018-04-13T00:31:41.080Z,99891.70
2018-04-13T00:34:08.680Z,99893.94
2018-04-13T00:36:36.216Z,99882.98
2018-04-13T00:39:03.702Z,99887.81
2018-04-13T00:41:31.150Z,99887.69
2018-04-13T00:43:58.651Z,99885.27
2018-04-13T00:46:26.137Z,99892.11
2018-04-13T00:48:53.622Z,99880.01
2018-04-13T00:51:21.094Z,99880.97
2018-04-13T00:53:48.625Z,99887.84
2018-04-13T00:56:16.133Z,99889.13
2018-04-13T00:58:43.652Z,99881.59
2018-04-13T01:01:11.145Z,99883.52
2018-04-13T01:03:38.667Z,99879.82
2018-04-13T01:06:06.191Z,99870.23
2018-04-13T01:08:33.802Z,99878.98
2018-04-13T01:11:01.260Z,99871.89
2018-04-13T01:13:28.767Z,99868.44
2018-04-13T01:15:56.277Z,99878.98
2018-04-13T01:18:23.787Z,99874.22
2018-04-13T01:20:51.382Z,99870.42
2018-04-13T01:23:18.885Z,99862.50
2018-04-13T01:25:46.344Z,99865.23
2018-04-13T01:28:13.868Z,99864.55
2018-04-13T01:30:41.361Z,99860.16
2018-04-13T01:33:08.848Z,99862.13
2018-04-13T01:35:36.321Z,99861.88
2018-04-13T01:38:03.803Z,99871.27
2018-04-13T01:40:31.269Z,99866.48
2018-04-13T01:42:58.800Z,99868.09
2018-04-13T01:45:26.361Z,99870.15
2018-04-13T01:47:53.835Z,99866.57
2018-04-13T01:50:21.303Z,99863.18
2018-04-13T01:52:49.055Z,99865.08
2018-04-13T01:55:16.546Z,99852.79
2018-04-13T01:57:44.045Z,99845.80
2018-04-13T02:00:11.600Z,99846.60
2018-04-13T02:02:39.060Z,99851.70
2018-04-13T02:05:06.631Z,99852.02
2018-04-13T02:07:34.087Z,99843.71
2018-04-13T02:10:01.589Z,99847.97
2018-04-13T02:12:29.075Z,99845.98
2018-04-13T02:14:56.595Z,99853.94
2018-04-13T02:17:24.088Z,99859.19
2018-04-13T02:19:51.546Z,99851.01
2018-04-13T02:22:19.056Z,99844.63
2018-04-13T02:24:46.539Z,99854.73
2018-04-13T02:27:14.043Z,99851.75
2018-04-13T02:29:41.630Z,99850.25
2018-04-13T02:32:09.288Z,99853.17
2018-04-13T02:34:36.855Z,99851.42
2018-04-13T02:37:04.251Z,99853.88
2018-04-13T02:39:31.853Z,99850.48
2018-04-13T02:41:59.411Z,99862.80
2018-04-13T02:44:26.863Z,99853.22
2018-04-13T02:46:54.432Z,99857.58
2018-04-13T02:49:21.957Z,99861.27
2018-04-13T02:51:49.419Z,99862.77
2018-04-13T02:54:16.872Z,99867.28
2018-04-13T02:56:44.382Z,99873.71
2018-04-13T02:59:11.859Z,99873.30
2018-04-13T03:01:39.356Z,99866.47
2018-04-13T03:04:07.742Z,99870.84
2018-04-13T03:06:35.212Z,99872.22
2018-04-13T03:09:02.733Z,99863.48
2018-04-13T03:11:30.188Z,99867.17
2018-04-13T03:13:57.682Z,99869.22
2018-04-13T03:16:25.167Z,99869.69
2018-04-13T03:18:52.704Z,99869.43
2018-04-13T03:21:20.165Z,99871.05
2018-04-13T03:23:47.656Z,99867.08
2018-04-13T03:26:15.164Z,99867.35
2018-04-13T03:28:42.695Z,99859.25
2018-04-13T03:31:10.300Z,99866.03
2018-04-13T03:33:37.799Z,99866.27
2018-04-13T03:36:05.283Z,99868.69
2018-04-13T03:38:32.798Z,99868.91
2018-04-13T03:41:00.302Z,99868.02
2018-04-13T03:43:27.767Z,99865.13
2018-04-13T03:45:55.236Z,99873.56
2018-04-13T03:48:22.708Z,99880.22
2018-04-13T03:50:50.191Z,99890.70
2018-04-13T03:53:17.705Z,99894.09
2018-04-13T03:55:45.212Z,99892.14
2018-04-13T03:58:12.788Z,99903.71
2018-04-13T04:00:40.238Z,99911.17
2018-04-13T04:03:07.736Z,99905.55
2018-04-13T04:05:35.227Z,99911.05
2018-04-13T04:08:02.680Z,99908.06
2018-04-13T04:10:30.143Z,99902.59
2018-04-13T04:12:57.661Z,99908.75
2018-04-13T04:15:25.256Z,99908.38
2018-04-13T04:17:52.721Z,99909.96
2018-04-13T04:20:32.044Z,99916.71
2018-04-13T04:23:11.347Z,99911.36
2018-04-13T04:26:02.442Z,99913.54
2018-04-13T04:28:29.952Z,99915.72
2018-04-13T04:30:57.474Z,99924.30
2018-04-13T04:33:25.077Z,99924.30
2018-04-13T04:35:52.583Z,99931.80
2018-04-13T04:38:20.067Z,99934.02
2018-04-13T04:40:47.580Z,99930.84
2018-04-13T04:43:15.040Z,99927.92
2018-04-13T04:45:42.504Z,99929.10
2018-04-13T04:48:10.006Z,99927.48
2018-04-13T04:50:37.475Z,99932.12
2018-04-13T04:53:04.962Z,99931.71
2018-04-13T04:55:32.422Z,99928.98
2018-04-13T04:57:59.901Z,99932.37
2018-04-13T05:00:27.387Z,99929.34
2018-04-13T05:02:54.839Z,99938.22
2018-04-13T05:05:22.289Z,99944.44
2018-04-13T05:07:49.764Z,99948.23
2018-04-13T05:10:17.210Z,99954.49
2018-04-13T05:12:44.692Z,99965.30
2018-04-13T05:15:12.331Z,99972.55
2018-04-13T05:17:39.795Z,99968.59
2018-04-13T05:20:07.336Z,99972.55
2018-04-13T05:22:34.898Z,99978.02
2018-04-13T05:25:02.353Z,99985.59
2018-04-13T05:27:29.848Z,99975.56
2018-04-13T05:29:57.347Z,99974.06
2018-04-13T05:32:24.799Z,99972.66
2018-04-13T05:34:52.363Z,99973.76
2018-04-13T05:37:19.956Z,99974.59
2018-04-13T05:39:47.465Z,99975.28
2018-04-13T05:42:14.970Z,99980.23
2018-04-13T05:44:42.430Z,99975.63
2018-04-13T05:47:09.906Z,99975.88
2018-04-13T05:49:37.373Z,99976.84
2018-04-13T05:52:04.871Z,99971.61
2018-04-13T05:54:32.364Z,99970.73
2018-04-13T05:56:59.811Z,99973.38
2018-04-13T05:59:27.313Z,99971.58
2018-04-13T06:01:54.788Z,99970.61
2018-04-13T06:04:22.268Z,99968.36
2018-04-13T06:06:49.789Z,99966.02
2018-04-13T06:09:17.308Z,99971.34
2018-04-13T06:11:44.873Z,99970.45
2018-04-13T06:14:12.365Z,99972.16
2018-04-13T06:16:39.856Z,99966.05
2018-04-13T06:19:07.323Z,99972.95
2018-04-13T06:21:34.780Z,99975.41
2018-04-13T06:24:02.294Z,99978.13
2018-04-13T06:26:29.791Z,99988.38
2018-04-13T06:28:57.275Z,99998.31
2018-04-13T06:31:24.902Z,99987.48
2018-04-13T06:33:52.488Z,99998.84
2018-04-13T06:36:19.989Z,100014.41
2018-04-13T06:38:47.461Z,100021.19
2018-04-13T06:41:15.084Z,100019.19
2018-04-13T06:43:42.599Z,100025.08
2018-04-13T06:46:10.051Z,100039.56
2018-04-13T06:48:37.579Z,100052.20
2018-04-13T06:51:05.127Z,100067.41
2018-04-13T06:53:32.597Z,100082.45
2018-04-13T06:56:00.091Z,100081.47
2018-04-13T06:58:27.551Z,100077.52
2018-04-13T07:00:55.108Z,100086.00
2018-04-13T07:03:22.568Z,100101.18
2018-04-13T07:05:50.073Z,100110.10
2018-04-13T07:08:17.690Z,100105.98
2018-04-13T07:10:45.147Z,100101.35
2018-04-13T07:13:12.599Z,100103.12
2018-04-13T07:15:40.071Z,100102.98
2018-04-13T07:18:07.623Z,100086.25
2018-04-13T07:20:35.075Z,100092.31
2018-04-13T07:23:02.706Z,100085.91
2018-04-13T07:25:30.216Z,100088.65
2018-04-13T07:27:57.782Z,100089.92
2018-04-13T07:30:25.260Z,100094.45
2018-04-13T07:32:52.809Z,100105.50
2018-04-13T07:35:20.350Z,100111.70
2018-04-13T07:37:47.826Z,100123.52
2018-04-13T07:40:15.318Z,100122.61
2018-04-13T07:42:42.791Z,100126.47
2018-04-13T07:45:10.284Z,100136.49
2018-04-13T07:47:37.793Z,100151.30
2018-04-13T07:50:05.305Z,100148.88
2018-04-13T07:52:32.818Z,100147.80
2018-04-13T07:55:00.310Z,100156.02
2018-04-13T07:57:27.804Z,100150.18
2018-04-13T07:59:55.317Z,100155.92
2018-04-13T08:02:22.900Z,100146.52
2018-04-13T08:04:50.370Z,100130.26
2018-04-13T08:07:17.877Z,100127.82
2018-04-13T08:09:45.328Z,100119.73
2018-04-13T08:12:12.812Z,100127.94
2018-04-13T08:14:40.339Z,100124.50
2018-04-13T08:17:07.810Z,100106.50
2018-04-13T08:19:35.282Z,100096.42
2018-04-13T08:22:02.762Z,100076.89
2018-04-13T08:24:30.227Z,100059.55
2018-04-13T08:26:57.727Z,100063.25
2018-04-13T08:29:25.231Z,100047.27
2018-04-13T08:31:52.714Z,100055.86
2018-04-13T08:34:20.290Z,100056.91
2018-04-13T08:36:47.840Z,100058.25
2018-04-13T08:39:15.393Z,100056.58
2018-04-13T08:41:42.914Z,100064.05
2018-04-13T08:44:10.432Z,100063.61
2018-04-13T08:46:37.913Z,100060.75
2018-04-13T08:49:05.544Z,100052.69
2018-04-13T08:51:32.940Z,100054.46
2018-04-13T08:54:00.458Z,100040.17
2018-04-13T08:56:28.014Z,100056.77
2018-04-13T08:58:55.589Z,100056.37
2018-04-13T09:01:23.052Z,100050.36
2018-04-13T09:03:50.604Z,100052.81
2018-04-13T09:06:18.079Z,100056.70
2018-04-13T09:08:45.563Z,100066.63
2018-04-13T09:11:13.021Z,100069.30
2018-04-13T09:13:40.536Z,100061.14
2018-04-13T09:16:08.007Z,100058.53
2018-04-13T09:18:35.467Z,100062.92
2018-04-13T09:21:02.939Z,100067.19
2018-04-13T09:23:30.448Z,100072.52
2018-04-13T09:25:57.971Z,100079.84
2018-04-13T09:28:25.440Z,100089.02
2018-04-13T09:30:52.928Z,100086.75
2018-04-13T09:33:20.458Z,100086.51
2018-04-13T09:35:47.999Z,100082.88
2018-04-13T09:38:15.485Z,100084.13
2018-04-13T09:40:42.978Z,100095.76
2018-04-13T09:43:10.487Z,100096.56
2018-04-13T09:45:38.076Z,100104.35
2018-04-13T09:48:05.538Z,100105.37
2018-04-13T09:50:33.034Z,100108.42
2018-04-13T09:53:00.509Z,100110.76
2018-04-13T09:55:28.009Z,100100.23
2018-04-13T09:57:55.575Z,100111.91
2018-04-13T10:00:28.738Z,100118.25
2018-04-13T10:03:01.817Z,100114.55
2018-04-13T10:05:29.312Z,100111.47
2018-04-13T10:07:56.796Z,100114.06
2018-04-13T10:10:24.318Z,100115.99
2018-04-13T10:12:52.661Z,100101.86
2018-04-13T10:15:20.344Z,100103.97
2018-04-13T10:17:47.864Z,100105.69
2018-04-13T10:20:15.343Z,100107.19
2018-04-13T10:22:42.887Z,100106.48
2018-04-13T10:25:10.420Z,100106.52
2018-04-13T10:27:37.924Z,100109.33
2018-04-13T10:30:05.395Z,100108.36
2018-04-13T10:32:32.851Z,100107.41
2018-04-13T10:35:00.374Z,100114.66
2018-04-13T10:37:27.877Z,100127.15
2018-04-13T10:39:55.412Z,100128.64
2018-04-13T10:42:22.916Z,100129.83
2018-04-13T10:44:50.400Z,100123.75
2018-04-13T10:47:17.856Z,100121.80
2018-04-13T10:49:45.345Z,100120.33
2018-04-13T10:52:13.163Z,100128.33
2018-04-13T10:54:40.618Z,100133.62
2018-04-13T10:57:08.120Z,100134.28
2018-04-13T10:59:35.823Z,100131.39
2018-04-13T11:02:03.283Z,100121.80
2018-04-13T11:04:30.903Z,100135.06
2018-04-13T11:06:58.537Z,100140.56
2018-04-13T11:09:26.060Z,100130.83
2018-04-13T11:11:53.547Z,100124.69
2018-04-13T11:14:21.077Z,100121.06
2018-04-13T11:16:48.618Z,100111.33
2018-04-13T11:19:16.105Z,100111.36
2018-04-13T11:21:43.602Z,100109.64
2018-04-13T11:24:11.085Z,100115.41
2018-04-13T11:26:38.733Z,100104.29
2018-04-13T11:29:06.227Z,100107.39
2018-04-13T11:31:33.698Z,100096.20
2018-04-13T11:34:01.216Z,100097.44
2018-04-13T11:36:28.775Z,100090.91
2018-04-13T11:38:56.236Z,100088.77
2018-04-13T11:41:23.706Z,100086.23
2018-04-13T11:43:51.160Z,100071.81
2018-04-13T11:46:18.665Z,100072.02
2018-04-13T11:48:46.120Z,100070.21
2018-04-13T11:51:13.575Z,100071.18
2018-04-13T11:53:41.111Z,100071.48
2018-04-13T11:56:08.583Z,100077.03
2018-04-13T11:58:36.102Z,100077.45
2018-04-13T12:01:03.561Z,100076.95
2018-04-13T12:03:31.035Z,100067.33
2018-04-13T12:05:58.507Z,100062.84
2018-04-13T12:08:25.972Z,100061.97
2018-04-13T12:10:53.432Z,100066.61
2018-04-13T12:13:20.919Z,100064.63
2018-04-13T12:15:48.503Z,100074.58
2018-04-13T12:18:15.959Z,100074.72
2018-04-13T12:20:43.441Z,100072.67
2018-04-13T12:23:10.897Z,100063.72
2018-04-13T12:25:38.384Z,100065.38
2018-04-13T12:28:05.874Z,100060.89
2018-04-13T12:30:33.335Z,100060.05
2018-04-13T12:33:00.934Z,100048.91
2018-04-13T12:35:28.491Z,100045.66
2018-04-13T12:37:56.013Z,100049.42
2018-04-13T12:40:23.583Z,100051.73
2018-04-13T12:42:51.105Z,100056.24
2018-04-13T12:45:18.615Z,100053.84
2018-04-13T12:47:46.073Z,100056.68
2018-04-13T12:50:13.572Z,100058.10
2018-04-13T12:52:41.102Z,100053.87
2018-04-13T12:55:08.975Z,100059.75
2018-04-13T12:57:36.170Z,100049.14
2018-04-13T13:00:03.628Z,100054.70
2018-04-13T13:02:31.213Z,100053.33
2018-04-13T13:04:58.713Z,100054.27
2018-04-13T13:07:26.222Z,100045.23
2018-04-13T13:09:53.786Z,100046.30
2018-04-13T13:12:21.274Z,100044.85
2018-04-13T13:14:48.731Z,100048.74
2018-04-13T13:17:16.234Z,100036.02
2018-04-13T13:19:43.734Z,100040.28
2018-04-13T13:22:11.294Z,100039.64
2018-04-13T13:24:38.785Z,100038.63
2018-04-13T13:27:06.277Z,100029.53
2018-04-13T13:29:33.860Z,100034.63
2018-04-13T13:32:01.444Z,100039.41
2018-04-13T13:34:28.964Z,100046.23
2018-04-13T13:36:56.454Z,100032.63
2018-04-13T13:39:23.972Z,100034.48
2018-04-13T13:41:51.449Z,100033.82
2018-04-13T13:44:18.952Z,100032.48
2018-04-13T13:46:46.428Z,100025.25
2018-04-13T13:49:13.882Z,100033.31
2018-04-13T13:51:41.527Z,100029.50
2018-04-13T13:54:09.070Z,100036.95
2018-04-13T13:56:36.668Z,100035.34
2018-04-13T13:59:04.137Z,100038.47
2018-04-13T14:01:31.636Z,100035.45
2018-04-13T14:03:59.124Z,100037.16
2018-04-13T14:06:26.650Z,100034.63
2018-04-13T14:08:54.100Z,100032.60
2018-04-13T14:11:21.585Z,100032.78
2018-04-13T14:13:49.091Z,100029.19
2018-04-13T14:16:16.569Z,100019.87
2018-04-13T14:18:44.027Z,100029.80
2018-04-13T14:21:11.491Z,100034.67
2018-04-13T14:23:39.150Z,100022.17
2018-04-13T14:26:06.659Z,100017.20
2018-04-13T14:28:34.136Z,100017.25
2018-04-13T14:31:01.623Z,100013.87
2018-04-13T14:33:29.137Z,100008.34
2018-04-13T14:35:56.611Z,100003.43
2018-04-13T14:38:24.096Z,100003.75
2018-04-13T14:43:42.080Z,100003.18
2018-04-13T14:46:09.528Z,99999.02
2018-04-13T14:48:37.046Z,100002.27
2018-04-13T14:51:04.586Z,100011.33
2018-04-13T14:53:32.034Z,100010.28
2018-04-13T14:55:59.507Z,100010.02
2018-04-13T14:58:26.983Z,100023.80
2018-04-13T15:00:54.595Z,100023.09
2018-04-13T15:03:22.015Z,100019.64
2018-04-13T15:05:49.604Z,100024.05
2018-04-13T15:08:17.109Z,100018.72
2018-04-13T15:10:44.609Z,100027.13
2018-04-13T15:13:12.141Z,100030.22
2018-04-13T15:15:39.642Z,100028.91
2018-04-13T15:18:07.188Z,100028.40
2018-04-13T15:20:34.705Z,100037.08
2018-04-13T15:23:02.221Z,100040.55
2018-04-13T15:25:29.782Z,100035.62
2018-04-13T15:27:57.343Z,100033.86
2018-04-13T15:30:24.888Z,100044.89
2018-04-13T15:32:52.453Z,100042.23
2018-04-13T15:35:19.976Z,100044.27
2018-04-13T15:37:47.432Z,100047.91
2018-04-13T15:40:14.919Z,100043.81
2018-04-13T15:42:42.377Z,100039.50
2018-04-13T15:45:09.849Z,100046.03
2018-04-13T15:47:37.340Z,100051.33
2018-04-13T15:50:04.855Z,100060.90
2018-04-13T15:52:32.353Z,100074.77
2018-04-13T15:54:59.832Z,100091.25
2018-04-13T15:57:27.289Z,100087.14
2018-04-13T15:59:54.758Z,100091.45
2018-04-13T16:02:22.334Z,100083.03
2018-04-13T16:04:49.893Z,100087.05
2018-04-13T16:07:17.378Z,100072.38
2018-04-13T16:09:44.934Z,100079.00
2018-04-13T16:12:12.525Z,100075.92
2018-04-13T16:14:39.973Z,100082.88
2018-04-13T16:17:07.459Z,100081.47
2018-04-13T16:19:34.933Z,100088.81
2018-04-13T16:22:02.424Z,100097.57
2018-04-13T16:24:29.989Z,100097.23
2018-04-13T16:26:57.533Z,100105.75
2018-04-13T16:29:24.986Z,100106.24
2018-04-13T16:31:52.554Z,100110.84
2018-04-13T16:34:20.127Z,100113.83
2018-04-13T16:36:47.616Z,100118.45
2018-04-13T16:39:15.117Z,100118.13
2018-04-13T16:41:42.648Z,100115.25
2018-04-13T16:44:10.161Z,100118.54
2018-04-13T16:46:37.725Z,100112.97
2018-04-13T16:49:05.388Z,100116.55
2018-04-13T16:51:32.896Z,100107.98
2018-04-13T16:54:00.416Z,100110.86
2018-04-13T16:56:27.883Z,100116.78
2018-04-13T16:58:55.366Z,100113.31
2018-04-13T17:01:22.870Z,100111.31
2018-04-13T17:03:50.352Z,100114.15
2018-04-13T17:06:17.852Z,100112.22
2018-04-13T17:08:45.448Z,100107.20
2018-04-13T17:11:12.948Z,100109.64
2018-04-13T17:13:40.475Z,100110.67
2018-04-13T17:16:08.110Z,100103.51
2018-04-13T17:18:35.579Z,100099.86
2018-04-13T17:21:03.048Z,100097.59
2018-04-13T17:23:30.569Z,100100.70
2018-04-13T17:25:58.022Z,100096.28
2018-04-13T17:28:25.613Z,100088.34
2018-04-13T17:30:53.063Z,100096.44
2018-04-13T17:33:20.552Z,100097.19
2018-04-13T17:35:48.049Z,100098.59
2018-04-13T17:38:15.572Z,100103.75
2018-04-13T17:40:43.074Z,100115.40
2018-04-13T17:43:10.678Z,100134.31
2018-04-13T17:45:38.132Z,100134.53
2018-04-13T17:48:05.638Z,100156.67
2018-04-13T17:50:33.260Z,100186.56
2018-04-13T17:53:00.850Z,100224.60
2018-04-13T17:55:28.320Z,100227.73
2018-04-13T17:57:55.828Z,100233.94
2018-04-13T18:00:23.312Z,100237.45
2018-04-13T18:02:50.814Z,100259.73
2018-04-13T18:05:18.413Z,100270.60
2018-04-13T18:07:46.076Z,100267.73
2018-04-13T18:10:13.629Z,100251.55
2018-04-13T18:12:41.146Z,100239.56
2018-04-13T18:15:08.612Z,100220.81
2018-04-13T18:17:36.068Z,100221.86
2018-04-13T18:20:03.551Z,100220.84
2018-04-13T18:22:31.072Z,100217.70
2018-04-13T18:24:58.595Z,100222.58
2018-04-13T18:27:26.064Z,100222.98
2018-04-13T18:29:53.565Z,100230.11
2018-04-13T18:32:21.023Z,100236.18
2018-04-13T18:34:48.477Z,100234.16
2018-04-13T18:37:16.121Z,100241.36
2018-04-13T18:39:43.695Z,100245.97
2018-04-13T18:42:11.206Z,100239.84
2018-04-13T18:44:38.734Z,100238.72
2018-04-13T18:47:06.234Z,100236.41
2018-04-13T18:49:33.863Z,100239.89
2018-04-13T18:52:01.409Z,100237.08
2018-04-13T18:54:28.893Z,100242.84
2018-04-13T18:56:56.438Z,100254.64
2018-04-13T18:59:23.922Z,100259.02
2018-04-13T19:01:51.415Z,100266.72
2018-04-13T19:04:18.946Z,100278.20
2018-04-13T19:06:46.442Z,100287.09
2018-04-13T19:09:13.979Z,100291.36
2018-04-13T19:11:41.560Z,100301.72
2018-04-13T19:14:09.070Z,100290.80
2018-04-13T19:16:36.547Z,100282.61
2018-04-13T19:19:04.089Z,100285.16
2018-04-13T19:21:31.659Z,100279.69
2018-04-13T19:23:59.126Z,100278.20
2018-04-13T19:26:26.591Z,100279.57
2018-04-13T19:28:54.144Z,100278.30
2018-04-13T19:31:21.655Z,100276.28
2018-04-13T19:33:49.213Z,100269.88
2018-04-13T19:36:16.760Z,100262.24
2018-04-13T19:38:44.287Z,100254.57
2018-04-13T19:41:11.806Z,100243.80
2018-04-13T19:43:39.368Z,100235.22
2018-04-13T19:46:06.900Z,100227.77
2018-04-13T19:48:34.481Z,100209.10
2018-04-13T19:51:01.976Z,100199.49
2018-04-13T19:53:29.570Z,100200.16
2018-04-13T19:55:57.094Z,100201.12
2018-04-13T19:58:24.608Z,100199.36
2018-04-13T20:00:52.212Z,100185.04
2018-04-13T20:03:19.696Z,100180.98
2018-04-13T20:05:47.230Z,100195.72
2018-04-13T20:08:14.729Z,100196.55
2018-04-13T20:10:42.220Z,100188.27
2018-04-13T20:13:09.821Z,100183.22
2018-04-13T20:15:37.324Z,100178.71
2018-04-13T20:18:04.837Z,100180.18
2018-04-13T20:20:32.527Z,100182.22
2018-04-13T20:23:00.062Z,100185.33
2018-04-13T20:25:27.558Z,100187.88
2018-04-13T20:27:55.098Z,100191.95
2018-04-13T20:30:22.601Z,100196.55
2018-04-13T20:32:50.136Z,100210.06
2018-04-13T20:35:17.734Z,100224.67
2018-04-13T20:37:45.222Z,100248.41
2018-04-13T20:40:12.726Z,100246.61
2018-04-13T20:42:40.192Z,100247.29
2018-04-13T20:45:07.722Z,100247.94
2018-04-13T20:47:35.347Z,100250.65
2018-04-13T20:50:02.856Z,100243.97
2018-04-13T20:52:30.402Z,100247.74
2018-04-13T20:54:57.903Z,100241.20
2018-04-13T20:57:25.447Z,100250.61
2018-04-13T20:59:52.988Z,100251.25
2018-04-13T21:02:20.491Z,100257.39
2018-04-13T21:04:48.013Z,100259.15
2018-04-13T21:07:15.493Z,100288.16
2018-04-13T21:09:43.089Z,100300.19
2018-04-13T21:12:10.583Z,100294.05
2018-04-13T21:14:38.120Z,100307.02
2018-04-13T21:17:05.652Z,100309.51
2018-04-13T21:19:33.212Z,100309.15
2018-04-13T21:22:00.830Z,100322.91
2018-04-13T21:24:28.324Z,100316.64
2018-04-13T21:26:55.925Z,100325.37
2018-04-13T21:29:23.390Z,100330.44
2018-04-13T21:31:50.909Z,100332.89
2018-04-13T21:34:18.421Z,100349.50
2018-04-13T21:36:45.923Z,100341.02
2018-04-13T21:39:13.460Z,100338.58
2018-04-13T21:41:41.050Z,100345.66
2018-04-13T21:44:08.511Z,100345.08
2018-04-13T21:46:35.999Z,100353.16
2018-04-13T21:49:03.499Z,100350.81
2018-04-13T21:51:31.078Z,100354.00
2018-04-13T21:53:58.570Z,100363.23
2018-04-13T21:56:26.039Z,100378.83
2018-04-13T21:58:53.520Z,100377.99
2018-04-13T22:01:21.006Z,100379.36
2018-04-13T22:03:48.519Z,100378.10
2018-04-13T22:06:16.049Z,100377.97
2018-04-13T22:08:43.549Z,100373.84
2018-04-13T22:11:11.094Z,100378.40
2018-04-13T22:13:38.593Z,100384.78
2018-04-13T22:16:06.052Z,100398.20
2018-04-13T22:18:33.536Z,100403.98
2018-04-13T22:21:01.034Z,100407.99
2018-04-13T22:23:28.543Z,100410.36
2018-04-13T22:25:56.008Z,100412.20
2018-04-13T22:28:23.497Z,100414.62
2018-04-13T22:30:51.025Z,100413.62
2018-04-13T22:33:18.512Z,100416.37
2018-04-13T22:35:46.007Z,100413.15
2018-04-13T22:38:13.499Z,100421.34
2018-04-13T22:40:40.973Z,100429.55
2018-04-13T22:43:08.469Z,100427.13
2018-04-13T22:45:35.943Z,100423.14
2018-04-13T22:48:03.473Z,100420.16
2018-04-13T22:50:30.935Z,100426.39
2018-04-13T22:52:58.429Z,100435.34
2018-04-13T22:55:25.933Z,100445.52
2018-04-13T22:57:53.389Z,100446.48
2018-04-13T23:00:20.895Z,100441.30
2018-04-13T23:02:48.415Z,100449.12
2018-04-13T23:05:15.910Z,100447.13
2018-04-13T23:07:43.417Z,100437.69
2018-04-13T23:10:10.922Z,100446.38
2018-04-13T23:12:38.400Z,100453.66
2018-04-13T23:15:05.852Z,100455.61
2018-04-13T23:17:33.324Z,100462.77
2018-04-13T23:20:00.876Z,100460.95
2018-04-13T23:22:38.407Z,100466.73
2018-04-13T23:25:06.057Z,100469.37
2018-04-13T23:27:33.545Z,100466.83
2018-04-13T23:30:01.053Z,100465.94
2018-04-13T23:32:28.547Z,100475.38
2018-04-13T23:34:56.014Z,100479.45
2018-04-13T23:37:23.591Z,100480.59
2018-04-13T23:39:51.138Z,100482.13
2018-04-13T23:42:18.632Z,100481.36
2018-04-13T23:44:46.135Z,100486.98
2018-04-13T23:47:13.631Z,100476.69
2018-04-13T23:49:41.202Z,100474.62
2018-04-13T23:52:08.973Z,100475.34
2018-04-13T23:54:36.459Z,100468.60
2018-04-13T23:57:03.978Z,100467.96
2018-04-13T23:59:31.509Z,100455.70
